Time;durP1;ratioP1;P1;durP2;ratioP2;P2;SDS_P1;SDS_P2;PMS_P1;PMS_P2;Temp;Humidity;BMP_temperature;BMP_pressure;BME280_temperature;BME280_humidity;BME280_pressure;Samples;Min_cycle;Max_cycle;Signal;HPM_P1;HPM_P2
2023/03/08 00:00:00;;;;;;;69.10;40.78;;;7.50;1.00;;;;;;5007684;28;20058;-78
2023/03/08 00:02:27;;;;;;;70.65;41.53;;;7.50;1.00;;;;;;5023336;28;20034;-78
2023/03/08 00:04:57;;;;;;;61.50;35.28;;;7.40;1.00;;;;;;5024997;28;20052;-80
2023/03/08 00:07:24;;;;;;;56.53;34.33;;;7.40;1.00;;;;;;5026917;28;20042;-78
2023/03/08 00:09:52;;;;;;;56.05;31.92;;;7.40;1.00;;;;;;5026527;28;20053;-78
2023/03/08 00:12:19;;;;;;;61.38;32.50;;;7.30;1.00;;;;;;5040627;28;20038;-78
2023/03/08 00:14:47;;;;;;;54.20;30.63;;;7.30;1.00;;;;;;5023203;28;20044;-77
2023/03/08 00:17:15;;;;;;;43.58;27.77;;;7.30;1.00;;;;;;5022721;28;20115;-78
2023/03/08 00:19:42;;;;;;;54.28;29.98;;;7.30;1.00;;;;;;5004203;28;20111;-79
2023/03/08 00:22:11;;;;;;;51.15;29.42;;;7.30;1.00;;;;;;5005991;28;20045;-77
2023/03/08 00:24:39;;;;;;;52.28;30.30;;;7.20;1.00;;;;;;5021724;28;20049;-77
2023/03/08 00:27:07;;;;;;;60.60;33.20;;;7.20;1.00;;;;;;5022819;28;20400;-76
2023/03/08 00:29:34;;;;;;;67.15;37.67;;;7.20;1.00;;;;;;5009077;28;20117;-77
2023/03/08 00:32:02;;;;;;;61.97;35.05;;;7.20;1.00;;;;;;5007342;28;20140;-78
2023/03/08 00:34:29;;;;;;;70.78;40.33;;;7.10;81.10;;;;;;5022256;28;20034;-77
2023/03/08 00:36:57;;;;;;;62.90;35.35;;;7.20;50.60;;;;;;5005370;28;20053;-78
2023/03/08 00:39:26;;;;;;;72.00;38.92;;;7.30;22.50;;;;;;5012674;28;20064;-77
2023/03/08 00:41:53;;;;;;;72.28;37.95;;;7.20;1.00;;;;;;5004297;28;20080;-77
2023/03/08 00:44:23;;;;;;;71.30;38.95;;;7.20;21.20;;;;;;5004024;28;20116;-77
2023/03/08 00:46:53;;;;;;;118.03;63.13;;;7.20;10.00;;;;;;5021618;28;20045;-77
2023/03/08 00:49:21;;;;;;;79.97;43.00;;;7.30;35.10;;;;;;5004984;28;20538;-76
2023/03/08 00:51:49;;;;;;;97.90;53.85;;;7.30;76.70;;;;;;5022520;28;20059;-77
2023/03/08 00:54:17;;;;;;;100.80;55.60;;;7.30;50.50;;;;;;5003811;28;20049;-77
2023/03/08 00:56:46;;;;;;;81.72;46.50;;;7.20;84.10;;;;;;5006277;28;20161;-79
2023/03/08 00:59:13;;;;;;;68.25;37.22;;;7.30;98.80;;;;;;5003252;28;20055;-77
2023/03/08 01:01:41;;;;;;;75.90;42.45;;;7.30;86.70;;;;;;5005550;28;20038;-79
2023/03/08 01:04:08;;;;;;;76.80;39.70;;;7.20;99.90;;;;;;5029241;28;20053;-76
2023/03/08 01:06:36;;;;;;;80.20;43.67;;;7.20;99.90;;;;;;5012828;28;20044;-77
2023/03/08 01:09:04;;;;;;;81.78;45.47;;;7.20;99.90;;;;;;5002217;28;20072;-77
2023/03/08 01:11:32;;;;;;;90.90;49.05;;;7.10;99.90;;;;;;5002743;28;20133;-78
2023/03/08 01:14:00;;;;;;;59.95;34.72;;;7.10;99.90;;;;;;5003889;28;20072;-78
2023/03/08 01:16:31;;;;;;;72.05;37.78;;;7.00;99.90;;;;;;5010740;28;20152;-76
2023/03/08 01:19:00;;;;;;;82.97;45.20;;;6.90;1.00;;;;;;5022532;28;20038;-78
2023/03/08 01:21:30;;;;;;;86.25;48.53;;;6.80;1.00;;;;;;5003739;28;20400;-79
2023/03/08 01:23:58;;;;;;;82.70;45.95;;;6.80;1.00;;;;;;5020738;28;20108;-78
2023/03/08 01:26:28;;;;;;;71.10;41.67;;;6.80;1.00;;;;;;5021719;28;20133;-77
2023/03/08 01:28:56;;;;;;;71.20;41.28;;;6.80;1.00;;;;;;5004759;28;20563;-77
2023/03/08 01:31:28;;;;;;;67.25;36.40;;;6.80;1.00;;;;;;5004238;28;20050;-77
2023/03/08 01:33:57;;;;;;;68.32;37.97;;;6.80;1.00;;;;;;5002067;28;20038;-79
2023/03/08 01:36:26;;;;;;;68.43;39.97;;;6.80;1.00;;;;;;5004112;28;20103;-78
2023/03/08 01:38:54;;;;;;;70.47;37.65;;;6.80;1.00;;;;;;5020307;28;20055;-78
2023/03/08 01:41:24;;;;;;;58.72;34.80;;;6.70;1.00;;;;;;5002592;28;20100;-78
2023/03/08 01:43:52;;;;;;;66.10;38.15;;;6.80;1.00;;;;;;5023764;28;20076;-78
2023/03/08 01:46:28;;;;;;;66.50;36.72;;;6.70;1.00;;;;;;5003621;28;20437;-76
2023/03/08 01:49:17;;;;;;;57.25;32.80;;;6.70;1.00;;;;;;5019717;28;20065;-78
2023/03/08 01:51:49;;;;;;;57.47;33.80;;;6.70;1.00;;;;;;5030323;28;20544;-78
2023/03/08 01:54:20;;;;;;;59.72;34.15;;;6.60;1.00;;;;;;5006836;28;20149;-78
2023/03/08 01:56:50;;;;;;;72.20;40.63;;;6.60;1.00;;;;;;5003125;28;20095;-77
2023/03/08 01:59:20;;;;;;;64.47;38.13;;;6.60;1.00;;;;;;5001771;28;20045;-77
2023/03/08 02:01:51;;;;;;;84.07;45.67;;;6.50;1.00;;;;;;5005070;28;20489;-78
2023/03/08 02:04:20;;;;;;;68.55;40.60;;;6.50;1.00;;;;;;5020303;28;20137;-77
2023/03/08 02:06:48;;;;;;;64.15;36.45;;;6.50;1.00;;;;;;5003850;28;20071;-77
2023/03/08 02:09:21;;;;;;;64.55;35.60;;;6.50;1.00;;;;;;5007427;28;20125;-77
2023/03/08 02:11:49;;;;;;;68.18;34.50;;;6.50;35.60;;;;;;5029691;28;20152;-78
2023/03/08 02:14:17;;;;;;;63.38;33.88;;;6.50;49.80;;;;;;5008959;28;20037;-78
2023/03/08 02:16:48;;;;;;;64.15;33.38;;;6.40;26.50;;;;;;5022685;28;20062;-76
2023/03/08 02:19:23;;;;;;;58.30;34.00;;;6.40;82.30;;;;;;5010087;28;20049;-79
2023/03/08 02:21:51;;;;;;;58.33;29.02;;;6.40;99.90;;;;;;5002977;28;20052;-78
2023/03/08 02:24:22;;;;;;;52.45;28.23;;;6.50;1.00;;;;;;5003518;28;20183;-77
2023/03/08 02:26:51;;;;;;;52.88;29.38;;;6.50;1.00;;;;;;5021697;28;20554;-77
2023/03/08 02:29:18;;;;;;;42.13;23.92;;;6.50;18.10;;;;;;5019320;28;20045;-79
2023/03/08 02:31:47;;;;;;;40.97;22.08;;;6.60;1.00;;;;;;5017729;28;20037;-75
2023/03/08 02:34:14;;;;;;;46.08;23.83;;;6.60;1.00;;;;;;5002932;28;20054;-78
2023/03/08 02:36:42;;;;;;;51.40;24.60;;;6.60;1.00;;;;;;5020611;28;20045;-78
2023/03/08 02:39:09;;;;;;;40.25;22.27;;;6.60;1.00;;;;;;5001280;28;20068;-77
2023/03/08 02:41:38;;;;;;;51.03;28.27;;;6.60;1.00;;;;;;5019248;28;20037;-76
2023/03/08 02:44:06;;;;;;;41.42;23.88;;;6.50;1.00;;;;;;5020547;28;20037;-76
2023/03/08 02:46:36;;;;;;;52.17;27.48;;;6.60;1.00;;;;;;5018867;28;20136;-77
2023/03/08 02:49:03;;;;;;;43.38;21.67;;;6.60;1.00;;;;;;5020554;28;20076;-77
2023/03/08 02:51:31;;;;;;;40.50;22.17;;;6.60;1.00;;;;;;5008326;28;20144;-79
2023/03/08 02:53:59;;;;;;;46.67;25.48;;;6.60;1.00;;;;;;5002289;28;20062;-78
2023/03/08 02:56:27;;;;;;;48.10;26.55;;;6.50;1.00;;;;;;5011281;28;20049;-78
2023/03/08 02:58:55;;;;;;;46.15;25.38;;;6.50;1.00;;;;;;5020070;28;20056;-78
2023/03/08 03:01:24;;;;;;;39.75;24.30;;;6.50;1.00;;;;;;5004175;28;20050;-78
2023/03/08 03:03:55;;;;;;;36.95;21.67;;;6.50;1.00;;;;;;5002957;28;20099;-76
2023/03/08 03:06:22;;;;;;;39.47;21.70;;;6.60;1.00;;;;;;5001621;28;20053;-77
2023/03/08 03:08:53;;;;;;;39.63;22.23;;;6.70;1.00;;;;;;5026202;28;20038;-77
2023/03/08 03:11:22;;;;;;;38.47;22.05;;;6.70;1.00;;;;;;5009837;28;20053;-78
2023/03/08 03:13:57;;;;;;;39.28;22.75;;;6.80;1.00;;;;;;5004329;28;20081;-77
2023/03/08 03:16:28;;;;;;;41.67;23.55;;;6.70;1.00;;;;;;5027062;28;20083;-77
2023/03/08 03:18:56;;;;;;;39.42;21.83;;;6.70;1.00;;;;;;5018399;28;20124;-77
2023/03/08 03:21:24;;;;;;;42.83;24.13;;;6.80;1.00;;;;;;5001342;28;20123;-77
2023/03/08 03:23:53;;;;;;;35.80;18.92;;;6.80;1.00;;;;;;5018759;28;20046;-77
2023/03/08 03:26:26;;;;;;;41.45;19.83;;;6.80;1.00;;;;;;5024428;28;20037;-79
2023/03/08 03:28:58;;;;;;;39.30;21.77;;;6.80;99.90;;;;;;5006763;28;20471;-77
2023/03/08 03:31:30;;;;;;;37.50;20.17;;;6.80;99.90;;;;;;5018572;28;20038;-78
2023/03/08 03:33:58;;;;;;;33.20;18.63;;;6.80;99.90;;;;;;5002804;28;20038;-77
2023/03/08 03:36:28;;;;;;;32.15;18.38;;;6.80;99.90;;;;;;5001891;28;20576;-76
2023/03/08 03:38:56;;;;;;;25.77;16.33;;;6.80;99.90;;;;;;5004498;28;20131;-78
2023/03/08 03:41:24;;;;;;;43.40;23.27;;;6.90;99.90;;;;;;5001574;28;20049;-78
2023/03/08 03:44:02;;;;;;;24.52;13.35;;;6.90;99.90;;;;;;5002050;28;20208;-79
2023/03/08 03:46:31;;;;;;;34.83;19.08;;;6.90;99.90;;;;;;5000667;28;20046;-76
2023/03/08 03:48:59;;;;;;;52.45;31.30;;;6.90;99.90;;;;;;5003363;28;20045;-76
2023/03/08 03:51:33;;;;;;;39.60;20.98;;;6.90;99.90;;;;;;5002724;28;20049;-78
2023/03/08 03:54:15;;;;;;;34.70;20.17;;;6.90;99.90;;;;;;5001191;28;20062;-78
2023/03/08 03:56:45;;;;;;;28.58;18.10;;;6.90;99.90;;;;;;5001769;28;20100;-77
2023/03/08 03:59:14;;;;;;;30.05;18.25;;;6.90;99.90;;;;;;5001474;28;20556;-77
2023/03/08 04:01:42;;;;;;;31.70;18.50;;;7.00;99.90;;;;;;5001130;28;20054;-77
2023/03/08 04:04:20;;;;;;;29.92;16.10;;;7.00;99.90;;;;;;5002579;28;20448;-78
2023/03/08 04:06:48;;;;;;;28.88;17.85;;;7.00;99.90;;;;;;5001351;28;20049;-77
2023/03/08 04:09:20;;;;;;;31.52;18.08;;;7.00;99.90;;;;;;5000628;28;20042;-78
2023/03/08 04:12:01;;;;;;;34.95;18.20;;;7.00;99.90;;;;;;5001598;28;20099;-78
2023/03/08 04:14:31;;;;;;;36.60;20.85;;;7.00;99.90;;;;;;5010256;28;20049;-77
2023/03/08 04:16:59;;;;;;;35.50;19.75;;;7.00;99.90;;;;;;5002611;28;20144;-78
2023/03/08 04:19:35;;;;;;;39.17;21.25;;;7.00;99.90;;;;;;5005048;28;20058;-77
2023/03/08 04:22:03;;;;;;;45.00;25.05;;;6.90;99.90;;;;;;5005077;28;20073;-78
2023/03/08 04:24:37;;;;;;;51.33;27.00;;;6.90;99.90;;;;;;5006508;28;20332;-78
2023/03/08 04:27:10;;;;;;;51.47;29.77;;;6.90;99.90;;;;;;5005154;28;20045;-78
2023/03/08 04:29:39;;;;;;;50.17;28.73;;;7.00;99.90;;;;;;5003108;28;20609;-78
2023/03/08 04:32:07;;;;;;;54.88;31.20;;;7.10;99.90;;;;;;5004797;28;20390;-78
2023/03/08 04:34:43;;;;;;;45.80;25.95;;;7.10;99.90;;;;;;5005861;28;20053;-78
2023/03/08 04:37:13;;;;;;;45.97;25.77;;;7.00;99.90;;;;;;5013095;28;20602;-76
2023/03/08 04:39:43;;;;;;;46.72;26.65;;;7.00;99.90;;;;;;5003844;28;20057;-78
2023/03/08 04:42:11;;;;;;;48.85;26.88;;;7.00;99.90;;;;;;5012308;28;20060;-77
2023/03/08 04:44:40;;;;;;;40.67;23.58;;;7.00;99.90;;;;;;5004219;28;20052;-77
2023/03/08 04:47:08;;;;;;;49.70;26.38;;;7.00;99.90;;;;;;5022884;28;20041;-77
2023/03/08 04:49:44;;;;;;;45.53;26.75;;;7.00;99.90;;;;;;5021138;28;20120;-77
2023/03/08 04:52:13;;;;;;;53.15;31.05;;;7.00;99.90;;;;;;5022641;28;20052;-78
2023/03/08 04:54:41;;;;;;;51.42;28.25;;;7.00;99.90;;;;;;5005459;28;20049;-78
2023/03/08 04:57:17;;;;;;;47.25;27.45;;;7.00;99.90;;;;;;5002770;28;20045;-78
2023/03/08 04:59:46;;;;;;;47.47;27.17;;;7.10;99.90;;;;;;5020455;28;20046;-77
2023/03/08 05:02:14;;;;;;;50.42;26.98;;;7.10;99.90;;;;;;5012303;28;20105;-77
2023/03/08 05:04:43;;;;;;;44.40;26.52;;;7.20;99.90;;;;;;5005651;28;20041;-78
2023/03/08 05:07:10;;;;;;;49.72;27.30;;;7.20;99.90;;;;;;5023675;28;20049;-76
2023/03/08 05:09:38;;;;;;;50.50;26.83;;;7.20;99.90;;;;;;5027113;28;20084;-78
2023/03/08 05:12:06;;;;;;;50.00;28.10;;;7.20;99.90;;;;;;5004988;28;20115;-76
2023/03/08 05:14:53;;;;;;;61.55;34.42;;;7.20;99.90;;;;;;5028393;28;20129;-78
2023/03/08 05:17:21;;;;;;;59.55;34.30;;;7.10;99.90;;;;;;5003537;28;20485;-78
2023/03/08 05:19:49;;;;;;;70.93;41.90;;;6.90;99.90;;;;;;5022951;28;20141;-78
2023/03/08 05:22:21;;;;;;;64.80;37.80;;;6.90;99.90;;;;;;5004079;28;20042;-77
2023/03/08 05:24:51;;;;;;;69.75;40.42;;;6.80;1.00;;;;;;5004616;28;20073;-78
2023/03/08 05:27:19;;;;;;;69.95;40.83;;;6.80;1.00;;;;;;5003533;28;20053;-79
2023/03/08 05:29:47;;;;;;;67.40;39.03;;;6.80;1.00;;;;;;5003378;28;20140;-77
2023/03/08 05:32:16;;;;;;;61.35;38.42;;;6.80;1.00;;;;;;5003785;28;20442;-76
2023/03/08 05:34:45;;;;;;;64.88;39.17;;;6.90;1.00;;;;;;5003644;28;20038;-78
2023/03/08 05:37:19;;;;;;;89.47;52.43;;;6.90;1.00;;;;;;5003052;28;20045;-78
2023/03/08 05:39:48;;;;;;;87.63;52.78;;;6.90;1.00;;;;;;5003552;28;20095;-77
2023/03/08 05:42:20;;;;;;;66.68;41.13;;;6.80;1.00;;;;;;5011188;28;20068;-78
2023/03/08 05:44:48;;;;;;;57.72;34.90;;;6.90;1.00;;;;;;5005003;28;20049;-78
2023/03/08 05:47:22;;;;;;;69.75;41.35;;;6.90;1.00;;;;;;5004031;28;20116;-79
2023/03/08 05:49:49;;;;;;;68.63;39.63;;;7.00;1.00;;;;;;5024409;28;20072;-78
2023/03/08 05:52:18;;;;;;;78.93;43.10;;;7.00;1.00;;;;;;5006203;28;20502;-78
2023/03/08 05:54:46;;;;;;;67.13;40.55;;;7.10;1.00;;;;;;5020144;28;20070;-79
2023/03/08 05:57:18;;;;;;;72.47;45.28;;;7.10;1.00;;;;;;5003119;28;20393;-78
2023/03/08 05:59:47;;;;;;;76.63;46.53;;;7.10;99.90;;;;;;5002885;28;20137;-77
2023/03/08 06:02:17;;;;;;;78.20;46.97;;;7.10;99.90;;;;;;5022653;28;20053;-76
2023/03/08 06:04:51;;;;;;;88.88;50.40;;;7.20;99.90;;;;;;5003122;28;20060;-76
2023/03/08 06:07:22;;;;;;;94.40;54.20;;;7.20;99.90;;;;;;5002609;28;20052;-77
2023/03/08 06:10:02;;;;;;;88.82;54.58;;;7.20;99.90;;;;;;5010081;28;20049;-76
2023/03/08 06:12:30;;;;;;;79.00;50.30;;;7.20;99.90;;;;;;5010718;28;20508;-78
2023/03/08 06:15:02;;;;;;;96.75;53.15;;;7.20;99.90;;;;;;5013526;28;20553;-80
2023/03/08 06:17:33;;;;;;;98.88;59.13;;;7.20;99.90;;;;;;5014226;28;20057;-77
2023/03/08 06:20:02;;;;;;;96.50;57.08;;;7.20;99.90;;;;;;5005129;28;20112;-78
2023/03/08 06:22:33;;;;;;;101.63;59.55;;;7.30;99.90;;;;;;5002269;28;20069;-77
2023/03/08 06:25:02;;;;;;;92.75;54.40;;;7.50;99.90;;;;;;5003790;28;20111;-77
2023/03/08 06:27:34;;;;;;;87.82;51.00;;;7.70;99.90;;;;;;5002686;28;20513;-78
2023/03/08 06:30:07;;;;;;;103.80;59.53;;;7.90;21.70;;;;;;5008009;28;20081;-76
2023/03/08 06:32:36;;;;;;;87.53;51.50;;;8.00;1.00;;;;;;5005735;28;20076;-78
2023/03/08 06:35:06;;;;;;;84.95;48.85;;;8.30;1.00;;;;;;5002946;28;20044;-76
2023/03/08 06:37:36;;;;;;;94.38;49.88;;;8.50;1.00;;;;;;5003267;28;20060;-77
2023/03/08 06:40:08;;;;;;;81.53;47.00;;;8.90;1.00;;;;;;5000487;28;20037;-77
2023/03/08 06:42:35;;;;;;;84.47;47.95;;;9.30;1.00;;;;;;5003201;28;20073;-76
2023/03/08 06:45:03;;;;;;;82.93;50.05;;;9.60;1.00;;;;;;5009409;28;20092;-77
2023/03/08 06:47:31;;;;;;;84.75;53.20;;;9.80;1.00;;;;;;5023479;28;20049;-78
2023/03/08 06:49:59;;;;;;;96.55;58.80;;;10.00;1.00;;;;;;5022553;28;20065;-79
2023/03/08 06:52:33;;;;;;;88.93;55.70;;;10.20;1.00;;;;;;5019757;28;20081;-78
2023/03/08 06:55:01;;;;;;;85.57;51.85;;;10.40;1.00;;;;;;5026337;28;20474;-78
2023/03/08 06:57:28;;;;;;;85.15;51.20;;;10.60;1.00;;;;;;5004444;28;20047;-78
2023/03/08 06:59:56;;;;;;;83.30;47.75;;;11.00;1.00;;;;;;5020026;28;20049;-78
2023/03/08 07:02:23;;;;;;;82.70;49.85;;;11.10;1.00;;;;;;5011630;28;20069;-78
2023/03/08 07:04:51;;;;;;;86.63;50.35;;;11.20;1.00;;;;;;5022297;28;20041;-76
2023/03/08 07:07:18;;;;;;;85.68;51.28;;;11.20;1.00;;;;;;5020889;28;20045;-78
2023/03/08 07:09:48;;;;;;;80.80;50.50;;;11.30;1.00;;;;;;5019367;28;20091;-76
2023/03/08 07:12:16;;;;;;;87.07;53.10;;;11.30;1.00;;;;;;5018724;28;20053;-76
2023/03/08 07:14:43;;;;;;;82.47;48.75;;;11.40;1.00;;;;;;5020278;28;20037;-77
2023/03/08 07:17:11;;;;;;;83.28;49.40;;;11.50;1.00;;;;;;5023587;28;20393;-76
2023/03/08 07:19:38;;;;;;;88.18;52.03;;;11.80;1.00;;;;;;5015994;28;20474;-77
2023/03/08 07:22:06;;;;;;;88.53;55.38;;;12.00;1.00;;;;;;5020574;28;20048;-76
2023/03/08 07:24:33;;;;;;;84.82;50.22;;;12.30;1.00;;;;;;5019142;28;20400;-77
2023/03/08 07:27:05;;;;;;;76.70;48.08;;;12.60;99.90;;;;;;5019792;28;20037;-78
2023/03/08 07:29:32;;;;;;;77.43;46.60;;;12.80;99.90;;;;;;5009375;28;20073;-77
2023/03/08 07:32:01;;;;;;;82.15;51.28;;;13.00;99.90;;;;;;5019506;28;20049;-77
2023/03/08 07:34:33;;;;;;;86.25;50.53;;;13.20;99.90;;;;;;5021868;28;20040;-76
2023/03/08 07:37:00;;;;;;;83.22;47.75;;;13.40;99.90;;;;;;5019274;28;20761;-78
2023/03/08 07:39:29;;;;;;;101.28;62.00;;;13.50;99.90;;;;;;5020230;28;20042;-75
2023/03/08 07:41:57;;;;;;;76.07;52.08;;;13.70;99.90;;;;;;5020567;28;20050;-77
2023/03/08 07:44:26;;;;;;;87.95;54.33;;;13.80;99.90;;;;;;5018972;28;20062;-79
2023/03/08 07:46:54;;;;;;;78.82;47.88;;;14.00;99.90;;;;;;5019613;28;20084;-78
2023/03/08 07:49:21;;;;;;;70.90;42.05;;;14.20;99.90;;;;;;5019978;28;20117;-78
2023/03/08 07:51:50;;;;;;;25.60;16.08;;;14.40;99.90;;;;;;5023704;28;20081;-77
2023/03/08 07:54:17;;;;;;;29.63;17.95;;;14.50;99.90;;;;;;5024870;28;20085;-79
2023/03/08 07:56:45;;;;;;;28.80;18.40;;;14.80;99.90;;;;;;5025610;28;20045;-76
2023/03/08 07:59:12;;;;;;;14.73;8.23;;;14.90;99.90;;;;;;5024116;28;20042;-79
2023/03/08 08:01:41;;;;;;;10.32;5.88;;;15.10;99.90;;;;;;5023320;28;20045;-78
2023/03/08 08:04:11;;;;;;;12.32;6.57;;;15.30;99.90;;;;;;5023582;28;20104;-79
2023/03/08 08:06:38;;;;;;;12.55;7.50;;;15.50;99.90;;;;;;5023720;28;20132;-77
2023/03/08 08:09:07;;;;;;;11.57;6.80;;;15.60;99.90;;;;;;5023002;28;20064;-78
2023/03/08 08:11:34;;;;;;;13.23;6.25;;;15.50;99.90;;;;;;5022652;28;20444;-78
2023/03/08 08:14:02;;;;;;;14.38;7.25;;;15.40;99.90;;;;;;5023879;28;20093;-77
2023/03/08 08:16:29;;;;;;;10.65;7.00;;;15.20;99.90;;;;;;5022540;28;20046;-77
2023/03/08 08:18:58;;;;;;;16.30;8.30;;;15.00;99.90;;;;;;5024655;28;20038;-77
2023/03/08 08:21:26;;;;;;;16.45;9.80;;;14.90;99.90;;;;;;5004444;28;20425;-78
2023/03/08 08:23:56;;;;;;;23.05;15.10;;;14.80;99.90;;;;;;5021770;28;20048;-78
2023/03/08 08:26:24;;;;;;;17.52;9.35;;;14.80;99.90;;;;;;5023818;28;20042;-77
2023/03/08 08:28:53;;;;;;;18.02;10.32;;;14.80;99.90;;;;;;5024532;28;20440;-77
2023/03/08 08:31:23;;;;;;;16.15;9.90;;;14.90;99.90;;;;;;5031037;28;20053;-76
2023/03/08 08:33:52;;;;;;;16.20;10.70;;;15.10;99.90;;;;;;5006874;28;20103;-77
2023/03/08 08:36:21;;;;;;;19.52;7.65;;;15.20;99.90;;;;;;5006490;28;20053;-77
2023/03/08 08:38:49;;;;;;;8.02;5.05;;;15.50;99.90;;;;;;5024366;28;20440;-78
2023/03/08 08:41:18;;;;;;;9.35;5.40;;;15.70;99.90;;;;;;5022237;28;20045;-78
2023/03/08 08:43:46;;;;;;;10.85;6.13;;;15.90;99.90;;;;;;5023848;28;20061;-78
2023/03/08 08:46:15;;;;;;;10.50;5.50;;;16.10;99.90;;;;;;5005234;28;20144;-80
2023/03/08 08:48:43;;;;;;;9.13;4.47;;;16.30;99.90;;;;;;5023535;28;20128;-78
2023/03/08 08:51:13;;;;;;;11.90;5.03;;;16.10;99.90;;;;;;5021300;28;20049;-77
2023/03/08 08:53:43;;;;;;;11.82;5.30;;;16.30;99.90;;;;;;5023052;28;20050;-77
2023/03/08 08:56:12;;;;;;;8.27;4.32;;;16.20;99.90;;;;;;5023346;28;20076;-79
2023/03/08 08:58:40;;;;;;;8.18;4.68;;;16.20;99.90;;;;;;5023924;28;20497;-78
2023/03/08 09:01:14;;;;;;;8.55;4.07;;;16.10;99.90;;;;;;5022149;28;20107;-78
2023/03/08 09:03:42;;;;;;;14.55;4.43;;;16.20;99.90;;;;;;5021692;28;20497;-79
2023/03/08 09:06:09;;;;;;;6.65;3.30;;;16.20;99.90;;;;;;5026341;28;20052;-78
2023/03/08 09:08:36;;;;;;;6.45;3.83;;;16.10;99.90;;;;;;5005902;28;20140;-79
2023/03/08 09:11:07;;;;;;;7.13;4.05;;;16.00;99.90;;;;;;5021294;28;20045;-78
2023/03/08 09:13:37;;;;;;;11.13;5.15;;;16.00;99.90;;;;;;5020241;28;20072;-77
2023/03/08 09:16:05;;;;;;;7.35;3.80;;;16.10;99.90;;;;;;5005482;28;20046;-77
2023/03/08 09:18:32;;;;;;;7.10;3.88;;;16.30;99.90;;;;;;5023151;28;20041;-78
2023/03/08 09:21:01;;;;;;;9.48;4.80;;;16.10;99.90;;;;;;5023196;28;20046;-77
2023/03/08 09:23:29;;;;;;;17.20;5.47;;;16.20;99.90;;;;;;5025625;28;20294;-78
2023/03/08 09:25:57;;;;;;;10.85;5.22;;;16.20;99.90;;;;;;5029429;28;20407;-77
2023/03/08 09:28:26;;;;;;;7.68;3.70;;;16.30;99.90;;;;;;5034478;28;20073;-78
2023/03/08 09:30:53;;;;;;;5.82;3.28;;;16.30;99.90;;;;;;5029313;28;20101;-77
2023/03/08 09:33:21;;;;;;;8.25;4.07;;;16.30;99.90;;;;;;5034406;28;20048;-77
2023/03/08 09:35:56;;;;;;;10.13;3.88;;;16.30;99.90;;;;;;5031661;28;20479;-78
2023/03/08 09:38:24;;;;;;;9.10;4.63;;;16.40;99.90;;;;;;5029765;28;20054;-77
2023/03/08 09:41:00;;;;;;;10.52;4.93;;;16.40;99.90;;;;;;5024311;28;20103;-78
2023/03/08 09:43:42;;;;;;;11.85;5.25;;;16.60;99.90;;;;;;5040609;28;20052;-77
2023/03/08 09:46:14;;;;;;;10.25;4.90;;;16.70;99.90;;;;;;5032952;28;20049;-78
2023/03/08 09:48:43;;;;;;;17.15;9.27;;;16.70;99.90;;;;;;5023188;28;20049;-76
2023/03/08 09:51:14;;;;;;;11.30;4.35;;;16.70;99.90;;;;;;5004721;28;20041;-77
2023/03/08 09:53:45;;;;;;;9.10;4.28;;;16.80;99.90;;;;;;5011551;28;20379;-76
2023/03/08 09:56:20;;;;;;;9.30;4.10;;;16.90;99.90;;;;;;5020582;28;20038;-76
2023/03/08 09:58:53;;;;;;;10.73;4.80;;;17.00;99.90;;;;;;5003008;28;20044;-76
2023/03/08 10:01:32;;;;;;;8.30;4.38;;;17.00;99.90;;;;;;5020453;28;20054;-76
2023/03/08 10:04:24;;;;;;;10.05;4.78;;;16.80;99.90;;;;;;5021152;28;20623;-75
2023/03/08 10:07:06;;;;;;;7.13;4.13;;;16.80;99.90;;;;;;5001718;28;20079;-78
2023/03/08 10:09:38;;;;;;;6.35;3.17;;;16.90;99.90;;;;;;5021158;28;20046;-76
2023/03/08 10:12:19;;;;;;;5.80;3.53;;;16.90;99.90;;;;;;5024681;28;20049;-86
2023/03/08 10:14:50;;;;;;;7.60;3.75;;;17.00;99.90;;;;;;5041925;28;20042;-76
2023/03/08 10:17:21;;;;;;;8.07;3.70;;;17.20;99.90;;;;;;5033902;28;20081;-77
2023/03/08 10:19:54;;;;;;;7.18;3.83;;;17.40;99.90;;;;;;5019293;28;20128;-78
2023/03/08 10:22:33;;;;;;;6.93;3.30;;;17.60;99.90;;;;;;5023593;28;20046;-77
2023/03/08 10:25:25;;;;;;;6.13;3.58;;;17.60;99.90;;;;;;5024206;28;20121;-79
2023/03/08 10:30:48;;;;;;;19.80;13.30;;;17.90;99.90;;;;;;5019126;28;20041;-78
2023/03/08 10:33:18;;;;;;;18.52;9.27;;;18.10;99.90;;;;;;5004795;28;20433;-79
2023/03/08 10:35:58;;;;;;;12.27;7.65;;;18.30;99.90;;;;;;5004187;28;20045;-78
2023/03/08 10:38:28;;;;;;;14.23;8.40;;;18.50;99.90;;;;;;5022374;28;20038;-79
2023/03/08 10:41:03;;;;;;;10.38;5.70;;;18.60;99.90;;;;;;5021700;28;20128;-78
2023/03/08 10:43:33;;;;;;;13.13;8.50;;;18.60;99.90;;;;;;5022675;28;20428;-77
2023/03/08 10:46:05;;;;;;;12.32;6.88;;;18.80;99.90;;;;;;5018871;28;20041;-78
2023/03/08 10:48:32;;;;;;;10.15;5.88;;;19.00;99.90;;;;;;5019764;28;20117;-79
2023/03/08 10:51:01;;;;;;;9.13;3.60;;;19.10;99.90;;;;;;5022427;28;20409;-77
2023/03/08 10:53:29;;;;;;;7.70;4.10;;;19.00;99.90;;;;;;5020223;28;20041;-78
2023/03/08 10:55:59;;;;;;;7.93;3.88;;;19.00;99.90;;;;;;5023103;28;20046;-77
2023/03/08 10:58:30;;;;;;;10.20;4.93;;;19.10;99.90;;;;;;5022259;28;20137;-79
2023/03/08 11:00:59;;;;;;;11.13;6.45;;;19.40;99.90;;;;;;5021603;28;20041;-77
2023/03/08 11:03:29;;;;;;;7.95;3.88;;;19.60;99.90;;;;;;5020178;28;20128;-76
2023/03/08 11:05:58;;;;;;;12.75;5.63;;;19.70;99.90;;;;;;5025761;28;20092;-75
2023/03/08 11:08:30;;;;;;;9.10;5.80;;;19.50;99.90;;;;;;5027254;28;20034;-77
2023/03/08 11:11:09;;;;;;;7.63;3.78;;;19.40;99.90;;;;;;5009170;28;20046;-78
2023/03/08 11:13:38;;;;;;;11.70;5.35;;;19.40;99.90;;;;;;5022872;28;20041;-76
2023/03/08 11:16:21;;;;;;;10.73;5.15;;;19.40;99.90;;;;;;5019100;28;20044;-77
2023/03/08 11:19:03;;;;;;;8.40;4.82;;;19.40;99.90;;;;;;5013927;28;20581;-78
2023/03/08 11:21:39;;;;;;;9.20;5.53;;;19.40;99.90;;;;;;5026620;28;20047;-76
2023/03/08 11:24:17;;;;;;;;;;;19.40;99.90;;;;;;5026302;28;20065;-78
2023/03/08 11:26:53;;;;;;;7.90;4.25;;;19.30;99.90;;;;;;5030819;28;19922;-77
2023/03/08 11:29:32;;;;;;;12.98;7.07;;;19.30;99.90;;;;;;5026790;28;20137;-79
2023/03/08 11:32:05;;;;;;;13.60;4.97;;;19.10;99.90;;;;;;5025332;28;20567;-78
2023/03/08 11:35:07;;;;;;;8.95;5.32;;;19.10;99.90;;;;;;5022858;28;20105;-78
2023/03/08 11:37:40;;;;;;;20.80;11.07;;;19.40;99.90;;;;;;5013841;28;20513;-78
2023/03/08 11:40:20;;;;;;;13.95;6.80;;;19.40;99.90;;;;;;5023137;28;20041;-78
2023/03/08 11:43:00;;;;;;;8.38;4.90;;;19.40;99.90;;;;;;5006249;28;20041;-79
2023/03/08 11:45:32;;;;;;;14.00;8.48;;;19.50;99.90;;;;;;5025615;28;20033;-75
2023/03/08 11:48:27;;;;;;;10.77;6.65;;;19.40;99.90;;;;;;5024206;28;20060;-77
2023/03/08 11:51:05;;;;;;;8.77;4.45;;;19.30;99.90;;;;;;5021809;28;20045;-77
2023/03/08 11:53:44;;;;;;;12.80;7.57;;;19.00;99.90;;;;;;5023871;28;20490;-76
2023/03/08 11:56:33;;;;;;;14.48;5.90;;;19.10;99.90;;;;;;5024048;28;20042;-76
2023/03/08 11:59:07;;;;;;;15.45;8.45;;;19.10;99.90;;;;;;5025487;28;20566;-77
2023/03/08 12:01:41;;;;;;;10.43;5.47;;;19.10;99.90;;;;;;5021962;28;20412;-76
2023/03/08 12:04:13;;;;;;;8.75;4.93;;;18.90;99.90;;;;;;5023939;28;20038;-77
2023/03/08 12:06:44;;;;;;;14.65;5.28;;;18.70;99.90;;;;;;5023188;28;20435;-76
2023/03/08 12:09:21;;;;;;;11.57;5.85;;;18.70;99.90;;;;;;5023680;28;20045;-78
2023/03/08 12:11:56;;;;;;;8.38;3.72;;;18.70;99.90;;;;;;5023275;28;20041;-77
2023/03/08 12:14:27;;;;;;;9.32;4.68;;;18.80;99.90;;;;;;5022480;28;20045;-78
2023/03/08 12:17:04;;;;;;;10.10;5.88;;;19.00;99.90;;;;;;5022512;28;20500;-76
2023/03/08 12:19:40;;;;;;;7.85;4.28;;;19.30;99.90;;;;;;5023217;28;20069;-77
2023/03/08 12:22:32;;;;;;;14.02;6.05;;;19.40;99.90;;;;;;5025718;28;20060;-77
2023/03/08 12:25:09;;;;;;;12.90;6.63;;;19.40;99.90;;;;;;5028454;28;20265;-76
2023/03/08 12:27:44;;;;;;;10.15;6.28;;;19.40;99.90;;;;;;5024245;28;20051;-75
2023/03/08 12:30:24;;;;;;;7.47;3.30;;;19.30;99.90;;;;;;5023403;28;20476;-75
2023/03/08 12:32:54;;;;;;;10.43;4.40;;;19.10;99.90;;;;;;5022562;28;20095;-76
2023/03/08 12:35:28;;;;;;;8.25;4.40;;;19.10;99.90;;;;;;5023037;28;20033;-77
2023/03/08 12:37:59;;;;;;;6.30;3.60;;;19.10;99.90;;;;;;5022343;28;20037;-78
2023/03/08 12:40:31;;;;;;;7.32;3.47;;;18.90;99.90;;;;;;5022263;28;20042;-78
2023/03/08 12:43:08;;;;;;;7.88;4.03;;;18.80;99.90;;;;;;5028653;28;20049;-76
2023/03/08 12:45:36;;;;;;;6.72;3.72;;;19.00;99.90;;;;;;5023484;28;20152;-75
2023/03/08 12:48:23;;;;;;;20.50;6.38;;;19.20;99.90;;;;;;5022603;28;20038;-76
2023/03/08 12:51:02;;;;;;;10.30;3.80;;;19.00;99.90;;;;;;5022822;28;20164;-80
2023/03/08 12:53:38;;;;;;;10.00;4.95;;;18.70;99.90;;;;;;5021171;28;20073;-77
2023/03/08 12:56:24;;;;;;;7.45;4.97;;;18.60;99.90;;;;;;5023281;28;20038;-77
2023/03/08 12:58:54;;;;;;;12.25;4.82;;;18.80;99.90;;;;;;5020286;28;20050;-78
2023/03/08 13:01:33;;;;;;;15.77;9.02;;;18.90;99.90;;;;;;5021751;28;20053;-75